Time;durP1;ratioP1;P1;durP2;ratioP2;P2;SDS_P1;SDS_P2;PMS_P1;PMS_P2;Temp;Humidity;BMP_temperature;BMP_pressure;BME280_temperature;BME280_humidity;BME280_pressure;Samples;Min_cycle;Max_cycle;Signal;HPM_P1;HPM_P2
2022/04/16 00:02:01;;;;;;;0.60;0.40;;;11.90;99.90;;;;;;5114791;28;20955;-59
2022/04/16 00:04:28;;;;;;;1.60;0.50;;;11.80;99.90;;;;;;5115156;28;20894;-59
2022/04/16 00:06:55;;;;;;;0.53;0.30;;;11.80;99.90;;;;;;5116348;28;20448;-58
2022/04/16 00:09:22;;;;;;;0.50;0.40;;;11.70;99.90;;;;;;5117205;28;20520;-58
2022/04/16 00:11:49;;;;;;;0.77;0.40;;;11.70;99.90;;;;;;5117609;28;20556;-59
2022/04/16 00:14:16;;;;;;;0.73;0.40;;;11.80;99.90;;;;;;5118149;28;20907;-59
2022/04/16 00:16:45;;;;;;;0.50;0.40;;;11.80;99.90;;;;;;5118306;28;20453;-58
2022/04/16 00:19:12;;;;;;;0.50;0.30;;;11.70;99.90;;;;;;5118590;28;20445;-58
2022/04/16 00:21:39;;;;;;;0.53;0.30;;;11.60;99.90;;;;;;5117659;28;20456;-58
2022/04/16 00:24:07;;;;;;;0.80;0.40;;;11.60;99.90;;;;;;5116966;28;20547;-58
2022/04/16 00:26:38;;;;;;;0.50;0.30;;;11.60;99.90;;;;;;5117241;28;20551;-59
2022/04/16 00:29:05;;;;;;;0.63;0.33;;;11.60;99.90;;;;;;5116005;28;20484;-59
2022/04/16 00:31:32;;;;;;;0.60;0.40;;;11.50;99.90;;;;;;5115433;28;20900;-58
2022/04/16 00:34:01;;;;;;;0.60;0.40;;;11.50;99.90;;;;;;5117145;28;20914;-59
2022/04/16 00:36:28;;;;;;;0.83;0.43;;;11.50;99.90;;;;;;5117256;28;20535;-60
2022/04/16 00:38:55;;;;;;;0.63;0.30;;;11.40;99.90;;;;;;5116820;28;20455;-59
2022/04/16 00:41:23;;;;;;;0.90;0.43;;;11.30;1.00;;;;;;5117345;28;20457;-59
2022/04/16 00:43:52;;;;;;;0.40;0.23;;;11.20;1.00;;;;;;5116918;28;20451;-59
2022/04/16 00:46:19;;;;;;;0.87;0.40;;;11.20;1.00;;;;;;5115670;28;20931;-59
2022/04/16 00:48:46;;;;;;;0.70;0.40;;;11.10;1.00;;;;;;5115079;28;20484;-59
2022/04/16 00:51:15;;;;;;;0.60;0.33;;;11.00;1.00;;;;;;5116108;28;20563;-58
2022/04/16 00:53:42;;;;;;;0.50;0.30;;;11.00;1.00;;;;;;5116144;28;20501;-58
2022/04/16 00:56:11;;;;;;;0.60;0.30;;;11.00;1.00;;;;;;5115448;28;20797;-58
2022/04/16 00:58:40;;;;;;;0.47;0.30;;;11.10;1.00;;;;;;5115700;28;20436;-58
2022/04/16 01:01:07;;;;;;;0.60;0.30;;;11.10;99.90;;;;;;5115877;28;20452;-58
2022/04/16 01:03:34;;;;;;;0.70;0.37;;;11.10;1.00;;;;;;5116537;28;20547;-58
2022/04/16 01:06:01;;;;;;;0.90;0.37;;;11.10;1.00;;;;;;5116378;28;20525;-58
2022/04/16 01:08:30;;;;;;;0.50;0.30;;;11.10;1.00;;;;;;5114823;28;20876;-58
2022/04/16 01:10:58;;;;;;;0.50;0.30;;;11.20;1.00;;;;;;5115956;28;20888;-59
2022/04/16 01:13:24;;;;;;;0.57;0.30;;;11.30;1.00;;;;;;5116019;28;20810;-59
2022/04/16 01:15:52;;;;;;;0.93;0.40;;;11.30;1.00;;;;;;5115898;28;20459;-59
2022/04/16 01:18:20;;;;;;;0.60;0.40;;;11.40;99.90;;;;;;5115324;28;20448;-59
2022/04/16 01:20:47;;;;;;;2.40;0.40;;;11.40;99.90;;;;;;5114980;28;20930;-60
2022/04/16 01:23:16;;;;;;;0.70;0.30;;;11.40;99.90;;;;;;5115694;28;20891;-59
2022/04/16 01:25:44;;;;;;;0.50;0.40;;;11.40;99.90;;;;;;5116323;28;21000;-60
2022/04/16 01:28:12;;;;;;;0.63;0.30;;;11.50;99.90;;;;;;5115077;28;20732;-60
2022/04/16 01:30:39;;;;;;;0.50;0.30;;;11.50;99.90;;;;;;5115228;28;20903;-59
2022/04/16 01:33:06;;;;;;;0.47;0.30;;;11.50;99.90;;;;;;5116618;28;20543;-60
2022/04/16 01:35:33;;;;;;;0.53;0.30;;;11.40;99.90;;;;;;5115616;28;20519;-59
2022/04/16 01:38:00;;;;;;;0.53;0.40;;;11.30;99.90;;;;;;5115429;28;20501;-59
2022/04/16 01:40:29;;;;;;;0.70;0.40;;;11.30;99.90;;;;;;5113978;28;20444;-60
2022/04/16 01:42:56;;;;;;;0.63;0.40;;;11.20;99.90;;;;;;5113573;28;20484;-59
2022/04/16 01:45:24;;;;;;;3.83;0.50;;;11.30;99.90;;;;;;5114875;28;20475;-59
2022/04/16 01:47:51;;;;;;;0.60;0.40;;;11.30;99.90;;;;;;5114726;28;20498;-59
2022/04/16 01:50:19;;;;;;;0.77;0.40;;;11.20;99.90;;;;;;5114566;28;20480;-58
2022/04/16 01:52:46;;;;;;;0.80;0.50;;;11.00;99.90;;;;;;5115442;28;20487;-59
2022/04/16 01:55:13;;;;;;;0.80;0.50;;;11.00;1.00;;;;;;5116391;28;20452;-59
2022/04/16 01:57:42;;;;;;;0.60;0.30;;;11.00;1.00;;;;;;5116423;28;20445;-59
2022/04/16 02:00:11;;;;;;;1.80;0.50;;;11.00;1.00;;;;;;5117051;28;20519;-59
2022/04/16 02:02:38;;;;;;;0.70;0.40;;;11.00;1.00;;;;;;5116660;28;20464;-59
2022/04/16 02:05:06;;;;;;;1.23;0.30;;;10.90;1.00;;;;;;5116232;28;20444;-60
2022/04/16 02:07:33;;;;;;;0.57;0.40;;;10.90;1.00;;;;;;5115685;28;20464;-60
2022/04/16 02:10:00;;;;;;;0.50;0.30;;;11.10;1.00;;;;;;5116006;28;20571;-60
2022/04/16 02:12:28;;;;;;;0.70;0.40;;;11.10;1.00;;;;;;5115479;28;20479;-60
2022/04/16 02:14:56;;;;;;;0.70;0.40;;;11.00;1.00;;;;;;5116500;28;20821;-58
2022/04/16 02:17:23;;;;;;;0.50;0.33;;;11.00;1.00;;;;;;5116574;28;20521;-58
2022/04/16 02:19:50;;;;;;;0.73;0.40;;;11.00;1.00;;;;;;5116341;28;20437;-58
2022/04/16 02:22:17;;;;;;;0.60;0.40;;;11.00;1.00;;;;;;5115329;28;20551;-58
2022/04/16 02:24:46;;;;;;;0.60;0.37;;;11.00;1.00;;;;;;5114823;28;20736;-58
2022/04/16 02:27:13;;;;;;;0.80;0.43;;;11.00;1.00;;;;;;5115568;28;20464;-58
2022/04/16 02:29:40;;;;;;;0.70;0.40;;;11.00;1.00;;;;;;5115488;28;20572;-58
2022/04/16 02:32:09;;;;;;;0.50;0.30;;;11.10;1.00;;;;;;5115624;28;20476;-58
2022/04/16 02:34:36;;;;;;;0.80;0.50;;;11.10;1.00;;;;;;5116116;28;20497;-58
2022/04/16 02:37:03;;;;;;;0.60;0.40;;;10.90;1.00;;;;;;5115070;28;20540;-60
2022/04/16 02:39:30;;;;;;;1.10;0.40;;;10.70;1.00;;;;;;5114533;28;20919;-58
2022/04/16 02:41:57;;;;;;;0.80;0.40;;;10.70;1.00;;;;;;5113905;28;20457;-59
2022/04/16 02:47:09;;;;;;;0.57;0.40;;;10.50;16.50;;;;;;5113792;28;20435;-59
2022/04/16 02:49:38;;;;;;;0.97;0.40;;;10.40;99.90;;;;;;5113768;28;20490;-59
2022/04/16 02:52:06;;;;;;;0.60;0.50;;;10.40;99.90;;;;;;5114303;28;20809;-59
2022/04/16 02:54:33;;;;;;;0.70;0.40;;;10.30;1.00;;;;;;5114188;28;20448;-59
2022/04/16 02:57:00;;;;;;;0.93;0.50;;;10.30;99.90;;;;;;5115527;28;20552;-59
2022/04/16 02:59:28;;;;;;;0.70;0.40;;;10.30;1.00;;;;;;5116121;28;20528;-58
2022/04/16 03:01:55;;;;;;;0.60;0.40;;;10.20;1.00;;;;;;5116599;28;20460;-59
2022/04/16 03:04:24;;;;;;;0.60;0.50;;;10.10;1.00;;;;;;5116219;28;20882;-59
2022/04/16 03:06:51;;;;;;;1.17;0.40;;;10.00;99.90;;;;;;5116188;28;20492;-59
2022/04/16 03:09:18;;;;;;;0.60;0.40;;;9.90;99.90;;;;;;5118778;28;20452;-59
2022/04/16 03:11:45;;;;;;;0.50;0.40;;;9.80;24.20;;;;;;5119910;28;20463;-59
2022/04/16 03:19:57;;;;;;;0.70;0.50;;;10.30;48.00;;;;;;5036186;28;20961;-58
2022/04/16 03:22:24;;;;;;;0.60;0.40;;;10.30;1.00;;;;;;5083440;28;20463;-58
2022/04/16 03:24:51;;;;;;;0.70;0.50;;;10.30;1.00;;;;;;5119719;28;20814;-58
2022/04/16 03:27:18;;;;;;;0.60;0.40;;;10.30;99.90;;;;;;5119527;28;20453;-58
2022/04/16 03:29:45;;;;;;;0.90;0.50;;;10.20;1.00;;;;;;5119544;28;20516;-58
2022/04/16 03:32:12;;;;;;;0.97;0.50;;;10.20;1.00;;;;;;5119556;28;20539;-58
2022/04/16 03:34:39;;;;;;;0.67;0.40;;;10.20;1.00;;;;;;5118502;28;20547;-58
2022/04/16 03:37:07;;;;;;;1.07;0.50;;;10.20;1.00;;;;;;5119589;28;20547;-58
2022/04/16 03:39:34;;;;;;;0.80;0.40;;;10.40;99.90;;;;;;5117673;28;20600;-58
2022/04/16 03:42:01;;;;;;;0.83;0.60;;;10.50;99.90;;;;;;5118442;28;20549;-57
2022/04/16 03:44:28;;;;;;;0.80;0.50;;;10.50;63.60;;;;;;5119340;28;20494;-58
2022/04/16 03:46:55;;;;;;;0.63;0.40;;;10.40;99.90;;;;;;5119452;28;20516;-59
2022/04/16 03:49:22;;;;;;;0.80;0.40;;;10.20;99.90;;;;;;5118456;28;20532;-60
2022/04/16 03:51:48;;;;;;;0.60;0.40;;;10.10;1.00;;;;;;5117470;28;20460;-59
2022/04/16 04:00:00;;;;;;;0.97;0.50;;;10.20;1.00;;;;;;5118198;28;20416;-59
2022/04/16 04:02:27;;;;;;;1.53;0.50;;;10.10;1.00;;;;;;5117778;28;20465;-59
2022/04/16 04:04:54;;;;;;;0.90;0.50;;;9.90;1.00;;;;;;5118501;28;20445;-59
2022/04/16 04:07:21;;;;;;;0.80;0.60;;;9.80;99.90;;;;;;5118722;28;20547;-59
2022/04/16 04:09:49;;;;;;;0.83;0.57;;;9.80;1.00;;;;;;5118803;28;20571;-59
2022/04/16 04:12:17;;;;;;;0.90;0.50;;;10.00;99.90;;;;;;5118678;28;20456;-59
2022/04/16 04:14:45;;;;;;;1.00;0.50;;;10.00;1.00;;;;;;5119064;28;20476;-59
2022/04/16 04:17:13;;;;;;;0.83;0.50;;;9.90;99.90;;;;;;5118567;28;20543;-59
2022/04/16 04:19:42;;;;;;;0.77;0.50;;;9.90;1.00;;;;;;5117452;28;20488;-59
2022/04/16 04:22:10;;;;;;;0.90;0.40;;;10.00;99.90;;;;;;5118240;28;20923;-60
2022/04/16 04:24:37;;;;;;;0.83;0.50;;;10.00;99.90;;;;;;5118357;28;20830;-60
2022/04/16 04:27:07;;;;;;;0.90;0.50;;;10.00;99.90;;;;;;5118603;28;20828;-59
2022/04/16 04:29:34;;;;;;;0.70;0.50;;;10.10;99.90;;;;;;5118210;28;20959;-59
2022/04/16 04:32:01;;;;;;;0.80;0.50;;;10.00;99.90;;;;;;5118539;28;20548;-59
2022/04/16 04:34:28;;;;;;;0.80;0.50;;;10.10;71.60;;;;;;5118433;28;20448;-59
2022/04/16 04:36:55;;;;;;;0.80;0.50;;;10.10;1.00;;;;;;5118385;28;20947;-60
2022/04/16 04:39:22;;;;;;;0.80;0.50;;;10.20;1.00;;;;;;5117984;28;20799;-59
2022/04/16 04:41:57;;;;;;;0.70;0.47;;;10.10;1.00;;;;;;5117235;28;20499;-61
2022/04/16 04:44:25;;;;;;;0.80;0.57;;;10.10;1.00;;;;;;5116630;28;20530;-59
2022/04/16 04:46:52;;;;;;;1.20;0.70;;;10.10;1.00;;;;;;5117071;28;20578;-59
2022/04/16 04:49:19;;;;;;;0.80;0.50;;;10.00;1.00;;;;;;5117743;28;20532;-59
2022/04/16 04:51:46;;;;;;;0.90;0.50;;;9.80;99.90;;;;;;5117656;28;20512;-61
2022/04/16 04:54:12;;;;;;;0.83;0.40;;;9.70;99.90;;;;;;5117034;28;20448;-59
2022/04/16 04:56:39;;;;;;;1.57;0.67;;;9.60;1.00;;;;;;5116591;28;20543;-59
2022/04/16 04:59:06;;;;;;;1.20;0.50;;;9.60;1.00;;;;;;5116368;28;20977;-59
2022/04/16 05:01:34;;;;;;;0.80;0.50;;;9.70;22.20;;;;;;5116342;28;20459;-60
2022/04/16 05:04:01;;;;;;;1.23;0.50;;;9.80;99.90;;;;;;5116194;28;20445;-60
2022/04/16 05:06:28;;;;;;;1.00;0.53;;;9.90;1.00;;;;;;5116462;28;20547;-60
2022/04/16 05:08:55;;;;;;;1.00;0.60;;;10.00;1.00;;;;;;5117241;28;20480;-59
2022/04/16 05:11:22;;;;;;;0.90;0.60;;;9.90;20.90;;;;;;5117522;28;20580;-59
2022/04/16 05:13:49;;;;;;;1.37;0.57;;;9.80;1.00;;;;;;5117855;28;20569;-59
2022/04/16 05:16:17;;;;;;;0.87;0.50;;;9.70;1.00;;;;;;5117595;28;20548;-59
2022/04/16 05:18:45;;;;;;;0.70;0.50;;;9.80;1.00;;;;;;5117254;28;20487;-59
2022/04/16 05:21:12;;;;;;;0.60;0.50;;;10.00;1.00;;;;;;5117176;28;20860;-58
2022/04/16 05:23:40;;;;;;;0.80;0.50;;;10.10;99.90;;;;;;5116560;28;20472;-59
2022/04/16 05:26:08;;;;;;;0.60;0.40;;;10.30;1.00;;;;;;5117222;28;20514;-59
2022/04/16 05:28:36;;;;;;;0.87;0.50;;;10.30;99.90;;;;;;5117189;28;20539;-59
2022/04/16 05:31:04;;;;;;;0.80;0.50;;;10.30;99.90;;;;;;5117028;28;20884;-59
2022/04/16 05:36:17;;;;;;;0.90;0.40;;;10.20;1.00;;;;;;5115249;28;20428;-59
2022/04/16 05:38:45;;;;;;;1.40;0.60;;;10.10;1.00;;;;;;5115038;28;20519;-59
2022/04/16 05:41:12;;;;;;;0.63;0.40;;;10.10;99.90;;;;;;5115612;28;20449;-59
2022/04/16 05:43:39;;;;;;;1.00;0.60;;;10.10;1.00;;;;;;5116074;28;20887;-59
2022/04/16 05:46:06;;;;;;;0.87;0.50;;;10.10;99.90;;;;;;5115727;28;20578;-59
2022/04/16 05:48:33;;;;;;;1.10;0.60;;;10.30;1.00;;;;;;5115750;28;20459;-59
2022/04/16 05:51:00;;;;;;;0.77;0.60;;;10.30;99.90;;;;;;5115037;28;20556;-63
2022/04/16 05:53:29;;;;;;;0.87;0.60;;;10.40;1.00;;;;;;5113940;28;20536;-59
2022/04/16 05:55:56;;;;;;;0.83;0.57;;;10.50;99.90;;;;;;5114095;28;20535;-58
2022/04/16 05:58:24;;;;;;;1.07;0.50;;;10.60;1.00;;;;;;5116187;28;20537;-59
2022/04/16 06:00:51;;;;;;;1.10;0.70;;;10.80;1.00;;;;;;5116216;28;20448;-58
2022/04/16 06:03:18;;;;;;;0.83;0.60;;;10.80;99.90;;;;;;5115735;28;20532;-58
2022/04/16 06:05:45;;;;;;;0.60;0.43;;;10.80;1.00;;;;;;5115909;28;20452;-58
2022/04/16 06:08:11;;;;;;;0.80;0.57;;;10.70;1.00;;;;;;5114947;28;20540;-59
2022/04/16 06:10:40;;;;;;;0.73;0.47;;;10.60;1.00;;;;;;5115482;28;20580;-59
2022/04/16 06:13:07;;;;;;;1.13;0.60;;;10.50;1.00;;;;;;5114911;28;20956;-59
2022/04/16 06:15:34;;;;;;;0.80;0.53;;;10.50;1.00;;;;;;5116070;28;20558;-59
2022/04/16 06:18:01;;;;;;;1.67;0.60;;;10.40;99.90;;;;;;5116473;28;20451;-59
2022/04/16 06:20:28;;;;;;;0.97;0.50;;;10.40;99.90;;;;;;5116541;28;20447;-59
2022/04/16 06:22:55;;;;;;;1.00;0.50;;;10.50;99.90;;;;;;5116247;28;20452;-59
2022/04/16 06:25:22;;;;;;;0.80;0.60;;;10.60;99.90;;;;;;5115778;28;20444;-59
2022/04/16 06:27:50;;;;;;;0.90;0.60;;;10.50;99.90;;;;;;5116118;28;20755;-60
2022/04/16 06:30:17;;;;;;;0.80;0.53;;;10.40;99.90;;;;;;5116176;28;20482;-59
2022/04/16 06:32:44;;;;;;;1.40;0.50;;;10.40;1.00;;;;;;5116372;28;20943;-59
2022/04/16 06:35:12;;;;;;;0.70;0.40;;;10.60;29.00;;;;;;5115626;28;20539;-59
2022/04/16 06:37:40;;;;;;;0.90;0.50;;;10.90;1.00;;;;;;5115155;28;20900;-59
2022/04/16 06:40:09;;;;;;;1.10;0.60;;;11.30;99.90;;;;;;5115493;28;20719;-59
2022/04/16 06:42:36;;;;;;;0.83;0.50;;;11.50;1.00;;;;;;5116057;28;20865;-59
2022/04/16 06:45:06;;;;;;;2.37;0.50;;;11.30;1.00;;;;;;5118704;28;20903;-59
2022/04/16 06:47:33;;;;;;;0.80;0.50;;;11.30;1.00;;;;;;5119816;28;20452;-59
2022/04/16 06:50:00;;;;;;;1.67;0.60;;;11.30;1.00;;;;;;5119620;28;20444;-59
2022/04/16 06:52:27;;;;;;;0.80;0.50;;;11.30;1.00;;;;;;5119955;28;20484;-59
2022/04/16 06:54:56;;;;;;;0.60;0.50;;;11.30;1.00;;;;;;5119934;28;20472;-59
2022/04/16 06:57:23;;;;;;;1.07;0.60;;;11.20;1.00;;;;;;5119233;28;20649;-59
2022/04/16 06:59:50;;;;;;;1.00;0.60;;;11.30;1.00;;;;;;5117836;28;20566;-59
2022/04/16 07:02:18;;;;;;;2.00;0.83;;;11.20;1.00;;;;;;5118094;28;20455;-59
2022/04/16 07:04:45;;;;;;;1.20;0.60;;;11.20;1.00;;;;;;5119722;28;20923;-58
2022/04/16 07:07:12;;;;;;;0.90;0.53;;;11.00;1.00;;;;;;5118204;28;20948;-59
2022/04/16 07:09:39;;;;;;;1.00;0.60;;;11.20;1.00;;;;;;5118074;28;20525;-59
2022/04/16 07:12:09;;;;;;;1.00;0.70;;;11.10;1.00;;;;;;5118770;28;20218;-59
2022/04/16 07:14:37;;;;;;;1.20;0.50;;;11.30;1.00;;;;;;5118647;28;20444;-60
2022/04/16 07:17:04;;;;;;;1.03;0.50;;;11.40;1.00;;;;;;5118609;28;20555;-60
2022/04/16 07:19:33;;;;;;;1.07;0.60;;;11.60;1.00;;;;;;5117691;28;20531;-59
2022/04/16 07:22:01;;;;;;;2.30;0.70;;;11.70;99.90;;;;;;5119207;28;20476;-59
2022/04/16 07:24:28;;;;;;;0.90;0.57;;;11.80;99.90;;;;;;5119239;28;20903;-59
2022/04/16 07:26:55;;;;;;;0.87;0.70;;;11.70;99.90;;;;;;5119354;28;20444;-59
2022/04/16 07:29:24;;;;;;;1.00;0.60;;;11.50;99.90;;;;;;5119387;28;20492;-59
2022/04/16 07:31:50;;;;;;;1.13;0.67;;;11.30;99.90;;;;;;5119368;28;20484;-59
2022/04/16 07:34:18;;;;;;;5.20;0.67;;;11.20;1.00;;;;;;5118703;28;20575;-58
2022/04/16 07:36:47;;;;;;;0.90;0.50;;;11.10;1.00;;;;;;5118778;28;20488;-59
2022/04/16 07:39:14;;;;;;;1.00;0.60;;;11.00;1.00;;;;;;5119277;28;20927;-59
2022/04/16 07:41:41;;;;;;;1.47;0.70;;;11.20;1.00;;;;;;5119445;28;20437;-58
2022/04/16 07:44:08;;;;;;;1.90;0.80;;;11.10;1.00;;;;;;5118209;28;20556;-59
2022/04/16 07:46:36;;;;;;;1.47;0.77;;;11.10;1.00;;;;;;5118054;28;20974;-59
2022/04/16 07:49:04;;;;;;;1.90;0.70;;;11.10;1.00;;;;;;5118075;28;20906;-59
2022/04/16 07:51:31;;;;;;;1.10;0.70;;;11.20;1.00;;;;;;5118609;28;20477;-59
2022/04/16 07:53:59;;;;;;;1.37;0.60;;;11.60;1.00;;;;;;5117994;28;20543;-59
2022/04/16 07:56:26;;;;;;;1.13;0.63;;;11.50;1.00;;;;;;5117840;28;20523;-59
2022/04/16 07:58:55;;;;;;;1.57;0.73;;;11.50;1.00;;;;;;5117897;28;20463;-60
2022/04/16 08:01:22;;;;;;;1.30;0.70;;;11.60;1.00;;;;;;5116833;28;20441;-59
2022/04/16 08:03:49;;;;;;;1.40;0.73;;;11.60;1.00;;;;;;5115163;28;20552;-59
2022/04/16 08:06:16;;;;;;;1.43;1.00;;;11.70;1.00;;;;;;5116246;28;20461;-59
2022/04/16 08:08:43;;;;;;;1.30;0.70;;;12.00;1.00;;;;;;5116942;28;20488;-60
2022/04/16 08:11:12;;;;;;;1.20;0.70;;;12.00;99.90;;;;;;5116864;28;20854;-59
2022/04/16 08:13:39;;;;;;;2.13;0.80;;;11.90;1.00;;;;;;5117876;28;20543;-60
2022/04/16 08:16:07;;;;;;;1.70;0.90;;;12.00;1.00;;;;;;5117846;28;20493;-60
2022/04/16 08:18:34;;;;;;;1.63;0.70;;;12.20;99.90;;;;;;5116118;28;20457;-59
2022/04/16 08:21:01;;;;;;;1.30;0.80;;;12.30;99.90;;;;;;5117074;28;20452;-60
2022/04/16 08:23:28;;;;;;;1.63;0.90;;;12.40;99.90;;;;;;5117394;28;20463;-59
2022/04/16 08:25:55;;;;;;;1.20;0.80;;;12.60;99.90;;;;;;5116964;28;20456;-59
2022/04/16 08:28:24;;;;;;;1.90;0.70;;;12.70;99.90;;;;;;5114474;28;20549;-57
2022/04/16 08:30:51;;;;;;;1.30;0.90;;;12.90;99.90;;;;;;5115351;28;20477;-57
2022/04/16 08:33:19;;;;;;;0.90;0.70;;;12.80;99.90;;;;;;5114798;28;20459;-58
2022/04/16 08:35:47;;;;;;;2.23;1.17;;;12.90;99.90;;;;;;5113011;28;20621;-58
2022/04/16 08:38:14;;;;;;;1.80;0.70;;;13.00;99.90;;;;;;5114043;28;20515;-57
2022/04/16 08:40:41;;;;;;;2.33;0.80;;;13.20;99.90;;;;;;5113778;28;20751;-58
2022/04/16 08:43:09;;;;;;;1.10;0.70;;;13.10;94.10;;;;;;5113904;28;20533;-58
2022/04/16 08:45:39;;;;;;;2.20;0.80;;;13.10;90.60;;;;;;5112601;28;20571;-57
2022/04/16 08:48:06;;;;;;;1.40;0.90;;;13.10;59.70;;;;;;5112891;28;20480;-57
2022/04/16 08:50:34;;;;;;;1.40;0.90;;;13.30;66.50;;;;;;5112956;28;20452;-57
2022/04/16 08:53:01;;;;;;;1.10;0.77;;;13.40;26.50;;;;;;5114187;28;20577;-57
2022/04/16 08:55:29;;;;;;;1.53;0.77;;;13.00;15.90;;;;;;5113530;28;20528;-57
2022/04/16 08:57:57;;;;;;;2.23;0.70;;;13.00;43.90;;;;;;5114399;28;20467;-58
2022/04/16 09:00:25;;;;;;;1.20;0.70;;;13.00;22.20;;;;;;5110023;28;20469;-58
2022/04/16 09:02:56;;;;;;;1.40;0.80;;;13.10;2.10;;;;;;5115327;28;20551;-58
2022/04/16 09:05:35;;;;;;;1.27;0.80;;;13.40;9.80;;;;;;5109715;28;20461;-58
2022/04/16 09:08:04;;;;;;;1.60;0.83;;;13.40;1.00;;;;;;5112404;28;20472;-58
2022/04/16 09:10:32;;;;;;;1.27;0.70;;;13.30;1.00;;;;;;5102596;28;20453;-58
2022/04/16 09:13:02;;;;;;;2.00;0.80;;;13.20;1.00;;;;;;5106723;28;20592;-58
2022/04/16 09:15:30;;;;;;;1.70;1.07;;;13.30;1.00;;;;;;5111718;28;20460;-58
2022/04/16 09:18:00;;;;;;;2.50;1.27;;;13.10;1.00;;;;;;5115527;28;20529;-57
2022/04/16 09:20:32;;;;;;;2.53;1.20;;;12.90;25.90;;;;;;5112827;28;20451;-57
2022/04/16 09:22:59;;;;;;;1.53;0.90;;;12.80;99.90;;;;;;5105380;28;20848;-58
2022/04/16 09:25:30;;;;;;;1.30;0.90;;;12.90;99.90;;;;;;5114888;28;20755;-58
2022/04/16 09:27:58;;;;;;;4.70;1.10;;;13.00;87.30;;;;;;5112622;28;20468;-58
2022/04/16 09:30:27;;;;;;;3.43;1.17;;;12.70;99.90;;;;;;5114110;28;20906;-58
2022/04/16 09:32:58;;;;;;;1.80;0.90;;;12.70;99.90;;;;;;5114270;28;20511;-58
2022/04/16 09:35:29;;;;;;;2.30;1.10;;;12.80;99.90;;;;;;5116074;28;20491;-58
2022/04/16 09:37:57;;;;;;;1.90;0.90;;;13.00;99.90;;;;;;5105061;28;20594;-58
2022/04/16 09:40:26;;;;;;;2.20;1.10;;;13.10;37.90;;;;;;5101454;28;20857;-58
2022/04/16 09:42:54;;;;;;;3.27;1.30;;;13.00;22.60;;;;;;5112998;28;20896;-55
2022/04/16 09:45:21;;;;;;;2.80;1.23;;;12.90;54.00;;;;;;5102529;28;20524;-56
2022/04/16 09:47:50;;;;;;;18.60;12.27;;;12.80;99.70;;;;;;5109804;28;20507;-57
2022/04/16 09:50:21;;;;;;;2.23;0.97;;;12.80;99.90;;;;;;5110503;28;20445;-57
2022/04/16 09:52:53;;;;;;;2.10;1.10;;;12.60;99.90;;;;;;5100621;28;20484;-58
2022/04/16 09:55:22;;;;;;;1.80;1.10;;;12.20;99.90;;;;;;5104032;28;20448;-58
2022/04/16 09:57:53;;;;;;;2.70;1.03;;;12.30;1.00;;;;;;5100401;28;20456;-57
2022/04/16 10:00:21;;;;;;;1.80;0.90;;;12.30;99.90;;;;;;5095601;28;20492;-57
2022/04/16 10:02:48;;;;;;;1.43;0.90;;;12.30;99.90;;;;;;5096331;28;20441;-57
2022/04/16 10:05:15;;;;;;;3.10;0.90;;;12.30;99.90;;;;;;5110465;28;20513;-57
2022/04/16 10:07:45;;;;;;;2.30;0.93;;;12.60;99.90;;;;;;5112091;28;20488;-60
2022/04/16 10:10:25;;;;;;;1.97;0.90;;;12.70;99.90;;;;;;5112080;28;20444;-57
2022/04/16 10:13:03;;;;;;;2.27;1.00;;;12.70;99.90;;;;;;5112313;28;20688;-58
2022/04/16 10:15:54;;;;;;;1.23;0.80;;;12.80;92.20;;;;;;5113413;28;20551;-60
2022/04/16 10:18:21;;;;;;;1.77;1.00;;;13.20;33.60;;;;;;5115135;28;20517;-58
2022/04/16 10:20:52;;;;;;;1.70;0.90;;;13.30;1.00;;;;;;5115516;28;20480;-59
2022/04/16 10:23:28;;;;;;;1.53;0.90;;;13.20;1.00;;;;;;5115087;28;20457;-59
2022/04/16 10:26:02;;;;;;;2.10;0.80;;;13.30;1.00;;;;;;5107809;28;20437;-60
2022/04/16 10:28:40;;;;;;;2.70;1.00;;;13.40;1.00;;;;;;5095132;28;21032;-57
2022/04/16 10:31:19;;;;;;;1.70;0.90;;;13.50;1.00;;;;;;5094414;28;20449;-57
2022/04/16 10:33:59;;;;;;;1.60;1.10;;;13.60;1.00;;;;;;5092543;28;20889;-58
2022/04/16 10:36:27;;;;;;;2.60;0.90;;;13.20;1.00;;;;;;5092275;28;20476;-59
2022/04/16 10:38:56;;;;;;;2.33;0.90;;;13.30;1.00;;;;;;5093303;28;20466;-58
2022/04/16 10:41:23;;;;;;;1.40;0.97;;;13.70;1.00;;;;;;5104791;28;20456;-61
2022/04/16 10:43:57;;;;;;;1.70;0.90;;;13.80;1.00;;;;;;5113961;28;20566;-61
2022/04/16 10:46:24;;;;;;;1.63;0.90;;;13.70;1.00;;;;;;5105442;28;20571;-61
2022/04/16 10:48:51;;;;;;;1.10;0.80;;;13.80;1.00;;;;;;5099416;28;20468;-62
2022/04/16 10:51:22;;;;;;;1.60;0.90;;;13.70;1.00;;;;;;5099161;28;20595;-60
2022/04/16 10:53:49;;;;;;;2.27;0.90;;;13.80;1.00;;;;;;5113221;28;20463;-60
2022/04/16 10:56:20;;;;;;;1.90;1.20;;;13.80;1.00;;;;;;5115162;28;20864;-60
2022/04/16 10:58:48;;;;;;;1.77;0.87;;;13.90;1.00;;;;;;5097316;28;20594;-62
2022/04/16 11:01:25;;;;;;;1.43;0.93;;;14.10;1.00;;;;;;5093366;28;20533;-61
2022/04/16 11:03:53;;;;;;;1.50;0.80;;;14.20;1.00;;;;;;5093062;28;20480;-60
2022/04/16 11:06:21;;;;;;;3.57;1.70;;;14.30;1.00;;;;;;5093000;28;20443;-60
2022/04/16 11:08:48;;;;;;;3.20;1.20;;;14.20;1.00;;;;;;5090754;28;20980;-61
2022/04/16 11:11:17;;;;;;;1.93;1.03;;;14.40;1.00;;;;;;5092847;28;20734;-61
2022/04/16 11:13:45;;;;;;;3.07;1.00;;;14.50;1.00;;;;;;5090952;28;20587;-62
2022/04/16 11:16:12;;;;;;;1.27;0.87;;;14.40;1.00;;;;;;5090821;28;20923;-60
2022/04/16 11:18:43;;;;;;;1.17;0.80;;;14.30;1.00;;;;;;5092909;28;20556;-60
2022/04/16 11:21:12;;;;;;;2.00;0.80;;;14.50;1.00;;;;;;5091395;28;20544;-59
2022/04/16 11:23:44;;;;;;;1.30;0.60;;;14.50;1.00;;;;;;5091707;28;20461;-60
2022/04/16 11:34:30;;;;;;;1.30;0.87;;;14.40;1.00;;;;;;5105975;28;20919;-62
2022/04/16 11:36:58;;;;;;;1.37;0.70;;;14.50;1.00;;;;;;5109477;28;20464;-61
2022/04/16 11:39:27;;;;;;;0.87;0.80;;;14.60;1.00;;;;;;5117658;28;20452;-62
2022/04/16 11:41:55;;;;;;;1.40;0.80;;;14.80;1.00;;;;;;5117327;28;20781;-61
2022/04/16 11:44:42;;;;;;;2.60;0.70;;;14.30;1.00;;;;;;5114537;28;20577;-62
2022/04/16 11:47:13;;;;;;;1.50;0.60;;;14.30;1.00;;;;;;5116522;28;20456;-61
2022/04/16 11:49:42;;;;;;;1.03;0.60;;;14.50;1.00;;;;;;5110865;28;20529;-61
2022/04/16 11:52:10;;;;;;;1.50;0.80;;;14.50;1.00;;;;;;5104688;28;20481;-59
2022/04/16 11:54:43;;;;;;;1.53;0.80;;;14.40;1.00;;;;;;5105274;28;20824;-61
2022/04/16 11:57:21;;;;;;;2.10;0.87;;;14.40;1.00;;;;;;5107455;28;20449;-61
2022/04/16 11:59:58;;;;;;;1.30;0.70;;;14.60;1.00;;;;;;5107073;28;20876;-60
2022/04/16 12:02:31;;;;;;;1.20;0.80;;;14.80;1.00;;;;;;5106670;28;20535;-62
2022/04/16 12:05:11;;;;;;;5.20;0.83;;;15.10;1.00;;;;;;5102158;28;20452;-61
2022/04/16 12:07:41;;;;;;;1.20;0.77;;;15.00;1.00;;;;;;5116904;28;20445;-61
2022/04/16 12:10:08;;;;;;;0.93;0.70;;;14.90;1.00;;;;;;5116689;28;20559;-61
2022/04/16 12:12:44;;;;;;;1.00;0.70;;;14.80;1.00;;;;;;5117413;28;20516;-61
2022/04/16 12:15:13;;;;;;;1.40;0.80;;;14.90;1.00;;;;;;5116644;28;20860;-61
2022/04/16 12:17:41;;;;;;;1.33;0.70;;;15.00;1.00;;;;;;5116714;28;20444;-61
2022/04/16 12:20:10;;;;;;;1.40;0.80;;;14.80;1.00;;;;;;5115178;28;20452;-61
2022/04/16 12:22:47;;;;;;;1.43;0.70;;;14.80;1.00;;;;;;5114608;28;20441;-61
2022/04/16 12:25:16;;;;;;;1.23;0.70;;;14.80;1.00;;;;;;5114896;28;21110;-61
2022/04/16 12:27:47;;;;;;;2.15;0.70;;;14.80;1.00;;;;;;5115362;28;20438;-62
2022/04/16 12:30:17;;;;;;;1.30;0.90;;;15.20;1.00;;;;;;5115973;28;20252;-61
2022/04/16 12:32:59;;;;;;;1.23;0.83;;;15.90;1.00;;;;;;5116178;28;20480;-61
2022/04/16 12:35:26;;;;;;;2.40;0.60;;;16.40;1.00;;;;;;5116938;28;20453;-61
2022/04/16 12:37:54;;;;;;;1.40;0.80;;;17.20;1.00;;;;;;5115307;28;20895;-62
2022/04/16 12:40:21;;;;;;;1.00;0.70;;;17.20;1.00;;;;;;5112267;28;20468;-62
2022/04/16 12:42:48;;;;;;;0.93;0.67;;;17.60;1.00;;;;;;5113201;28;20748;-61
2022/04/16 12:45:16;;;;;;;1.10;0.73;;;18.20;1.00;;;;;;5114661;28;20570;-60
2022/04/16 12:47:44;;;;;;;1.23;0.70;;;18.20;1.00;;;;;;5111487;28;20453;-62
2022/04/16 12:50:12;;;;;;;1.10;0.70;;;17.60;1.00;;;;;;5100102;28;20548;-61
2022/04/16 12:52:39;;;;;;;0.90;0.60;;;17.00;1.00;;;;;;5096189;28;20477;-61
2022/04/16 12:55:08;;;;;;;2.37;0.70;;;17.00;1.00;;;;;;5095881;28;20901;-61
2022/04/16 12:57:34;;;;;;;1.30;0.70;;;16.90;1.00;;;;;;5094263;28;20443;-61
2022/04/16 13:00:01;;;;;;;1.10;0.70;;;16.80;1.00;;;;;;5093710;28;20556;-62
2022/04/16 13:02:30;;;;;;;1.60;0.70;;;16.40;1.00;;;;;;5094907;28;20536;-62
2022/04/16 13:04:57;;;;;;;0.97;0.60;;;16.60;1.00;;;;;;5095073;28;20454;-61
2022/04/16 13:07:24;;;;;;;1.00;0.70;;;17.00;1.00;;;;;;5095324;28;20534;-58
2022/04/16 13:09:51;;;;;;;0.83;0.60;;;17.30;1.00;;;;;;5095997;28;20544;-53
2022/04/16 13:12:19;;;;;;;0.90;0.70;;;17.30;1.00;;;;;;5096376;28;20549;-50
2022/04/16 13:14:46;;;;;;;1.30;0.70;;;17.30;1.00;;;;;;5095660;28;20526;-51
2022/04/16 13:17:13;;;;;;;0.80;0.50;;;17.30;1.00;;;;;;5094680;28;20445;-55
2022/04/16 13:19:42;;;;;;;1.37;0.70;;;17.50;1.00;;;;;;5092181;28;20453;-52
2022/04/16 13:22:09;;;;;;;2.47;0.77;;;17.30;1.00;;;;;;5092856;28;20449;-56
2022/04/16 13:24:36;;;;;;;2.30;0.60;;;16.90;1.00;;;;;;5093677;28;20457;-52